Time;durP1;ratioP1;P1;durP2;ratioP2;P2;SDS_P1;SDS_P2;PMS_P1;PMS_P2;Temp;Humidity;BMP_temperature;BMP_pressure;BME280_temperature;BME280_humidity;BME280_pressure;Samples;Min_cycle;Max_cycle;Signal;HPM_P1;HPM_P2
2021/12/11 00:01:37;;;;;;;1.33;0.90;;;;;;;1.16;100.00;93290.91;4954897;28;20220;-73
2021/12/11 00:04:08;;;;;;;2.37;0.97;;;;;;;1.15;100.00;93297.44;4949637;29;20233;-73
2021/12/11 00:06:41;;;;;;;1.50;1.00;;;;;;;1.22;100.00;93305.28;4954554;28;20190;-73
2021/12/11 00:09:41;;;;;;;1.50;0.90;;;;;;;1.11;100.00;93314.88;4954141;28;20630;-73
2021/12/11 00:12:18;;;;;;;0.90;0.90;;;;;;;1.12;100.00;93319.81;4950897;29;20212;-73
2021/12/11 00:14:50;;;;;;;1.27;0.73;;;;;;;1.13;100.00;93312.53;4954235;29;20708;-73
2021/12/11 00:17:26;;;;;;;1.63;0.73;;;;;;;1.13;100.00;93324.03;4951503;28;20213;-73
2021/12/11 00:19:52;;;;;;;2.13;0.83;;;;;;;1.14;100.00;93309.38;4943983;28;20234;-73
2021/12/11 00:22:21;;;;;;;1.87;1.10;;;;;;;1.18;100.00;93325.41;4953701;29;20617;-73
2021/12/11 00:24:48;;;;;;;1.70;0.97;;;;;;;1.08;100.00;93327.28;4956051;28;20229;-73
2021/12/11 00:27:26;;;;;;;1.90;1.00;;;;;;;1.12;100.00;93329.84;4954011;28;20198;-73
2021/12/11 00:29:52;;;;;;;2.50;1.17;;;;;;;1.16;100.00;93335.84;4936688;29;20202;-73
2021/12/11 00:32:23;;;;;;;2.10;0.90;;;;;;;1.22;100.00;93340.22;4954478;28;20186;-73
2021/12/11 00:34:52;;;;;;;1.47;1.33;;;;;;;1.16;100.00;93338.53;4944857;29;20194;-73
2021/12/11 00:37:22;;;;;;;3.93;1.80;;;;;;;1.06;100.00;93343.06;4952396;28;20217;-72
2021/12/11 00:40:22;;;;;;;2.77;1.50;;;;;;;1.21;100.00;93354.84;4954684;28;20189;-73
2021/12/11 00:42:56;;;;;;;1.80;1.20;;;;;;;1.21;100.00;93356.78;4950376;28;20241;-73
2021/12/11 00:45:32;;;;;;;0.73;0.73;;;;;;;1.19;100.00;93349.16;4950666;28;20198;-73
2021/12/11 00:48:04;;;;;;;2.77;1.10;;;;;;;1.16;100.00;93362.72;4956960;28;20241;-73
2021/12/11 00:50:36;;;;;;;3.63;0.90;;;;;;;1.17;100.00;93367.66;4953194;28;20202;-73
2021/12/11 00:53:16;;;;;;;1.37;1.00;;;;;;;1.12;100.00;93368.22;4953634;28;20256;-74
2021/12/11 00:55:46;;;;;;;1.57;1.00;;;;;;;1.16;100.00;93374.22;4955304;29;20220;-73
2021/12/11 00:58:23;;;;;;;1.43;1.20;;;;;;;1.13;100.00;93371.66;4951313;29;20229;-74
2021/12/11 01:00:55;;;;;;;0.90;0.90;;;;;;;1.14;100.00;93383.91;4951662;28;20228;-73
2021/12/11 01:03:26;;;;;;;0.80;0.73;;;;;;;1.18;100.00;93384.53;4954536;28;20213;-74
2021/12/11 01:05:55;;;;;;;2.67;1.30;;;;;;;1.21;100.00;93397.13;4953512;29;20234;-74
2021/12/11 01:08:32;;;;;;;3.20;1.37;;;;;;;1.14;100.00;93390.03;4948351;28;20229;-74
2021/12/11 01:11:15;;;;;;;1.20;0.90;;;;;;;1.19;100.00;93421.00;4951231;29;20189;-73
2021/12/11 01:13:46;;;;;;;2.20;0.97;;;;;;;1.19;100.00;93421.00;4954009;29;20251;-73
2021/12/11 01:16:14;;;;;;;3.70;0.90;;;;;;;1.18;100.00;93417.56;4949583;29;20771;-73
2021/12/11 01:18:44;;;;;;;0.87;0.80;;;;;;;1.16;100.00;93427.25;4945011;28;20229;-73
2021/12/11 01:21:31;;;;;;;1.37;0.93;;;;;;;1.27;100.00;93424.22;4957176;28;20224;-73
2021/12/11 01:26:36;;;;;;;0.60;0.60;;;;;;;1.19;100.00;93445.94;4951957;29;20197;-73
2021/12/11 01:29:03;;;;;;;1.07;0.70;;;;;;;1.23;100.00;93443.91;4953144;28;20209;-73
2021/12/11 01:31:29;;;;;;;1.37;0.77;;;;;;;1.22;100.00;93445.06;4954245;28;20194;-73
2021/12/11 01:33:56;;;;;;;0.93;0.60;;;;;;;1.27;100.00;93449.16;4955368;28;20186;-73
2021/12/11 01:36:23;;;;;;;0.70;0.70;;;;;;;1.32;100.00;93448.63;4950894;28;20281;-74
2021/12/11 01:38:55;;;;;;;1.20;0.60;;;;;;;1.18;100.00;93443.69;4939446;29;20214;-73
2021/12/11 01:41:22;;;;;;;0.73;0.73;;;;;;;1.11;100.00;93455.44;4964350;28;20194;-73
2021/12/11 01:43:54;;;;;;;1.43;1.10;;;;;;;1.23;100.00;93459.28;4965369;29;20221;-74
2021/12/11 01:46:23;;;;;;;1.97;0.83;;;;;;;1.24;100.00;93458.84;4954086;28;20206;-73
2021/12/11 01:48:56;;;;;;;0.83;0.80;;;;;;;1.21;100.00;93456.25;4961385;28;20225;-73
2021/12/11 01:51:28;;;;;;;2.37;0.70;;;;;;;1.27;100.00;93469.91;4976901;28;20197;-73
2021/12/11 01:53:59;;;;;;;1.50;0.93;;;;;;;1.27;100.00;93467.22;4967068;28;20193;-73
2021/12/11 01:56:28;;;;;;;2.20;0.70;;;;;;;1.24;100.00;93479.59;4962625;28;20198;-73
2021/12/11 01:59:02;;;;;;;1.53;0.90;;;;;;;1.24;100.00;93474.22;4952268;29;20268;-73
2021/12/11 02:01:37;;;;;;;1.13;0.87;;;;;;;1.27;100.00;93476.06;4951832;29;20201;-73
2021/12/11 02:04:06;;;;;;;1.13;0.60;;;;;;;1.30;100.00;93483.25;4950993;28;20229;-73
2021/12/11 02:06:35;;;;;;;2.83;0.90;;;;;;;1.27;100.00;93488.75;4949446;29;20194;-74
2021/12/11 02:09:31;;;;;;;1.37;0.70;;;;;;;1.27;100.00;93483.38;4953714;28;20224;-73
2021/12/11 02:12:06;;;;;;;1.17;0.60;;;;;;;1.29;100.00;93495.19;4951198;28;20212;-74
2021/12/11 02:14:38;;;;;;;1.07;0.70;;;;;;;1.28;100.00;93485.63;4950484;29;20214;-74
2021/12/11 02:17:05;;;;;;;3.53;0.90;;;;;;;1.31;100.00;93487.44;4952165;28;20370;-73
2021/12/11 02:19:38;;;;;;;1.80;1.43;;;;;;;1.30;100.00;93496.69;4972176;28;20277;-73
2021/12/11 02:22:12;;;;;;;0.73;0.60;;;;;;;1.29;100.00;93491.75;4969345;28;20193;-73
2021/12/11 02:24:44;;;;;;;1.50;0.90;;;;;;;1.22;100.00;93498.13;4953625;28;20196;-71
2021/12/11 02:27:51;;;;;;;1.33;0.53;;;;;;;1.23;100.00;93503.06;4952466;28;20193;-74
2021/12/11 02:30:22;;;;;;;0.70;0.60;;;;;;;1.22;100.00;93504.22;4934622;29;20252;-71
2021/12/11 02:33:09;;;;;;;2.13;0.83;;;;;;;1.16;100.00;93502.50;4949328;28;20229;-71
2021/12/11 02:35:56;;;;;;;3.70;0.77;;;;;;;1.19;100.00;93520.47;4948317;28;20659;-71
2021/12/11 02:38:31;;;;;;;3.03;0.73;;;;;;;1.27;100.00;93511.00;4965397;28;20216;-71
2021/12/11 02:41:08;;;;;;;1.57;0.80;;;;;;;1.15;100.00;93517.16;4971100;28;20189;-73
2021/12/11 02:43:41;;;;;;;2.60;0.80;;;;;;;1.24;100.00;93515.31;4936208;28;20209;-71
2021/12/11 02:46:21;;;;;;;3.43;0.80;;;;;;;1.28;100.00;93517.88;4945901;28;20194;-70
2021/12/11 02:48:56;;;;;;;1.10;0.67;;;;;;;1.30;100.00;93514.75;4960643;28;20217;-71
2021/12/11 02:51:31;;;;;;;4.23;1.00;;;;;;;1.19;100.00;93523.16;4956559;28;20232;-71
2021/12/11 02:54:08;;;;;;;1.50;0.70;;;;;;;1.12;100.00;93529.50;4951129;29;20197;-71
2021/12/11 02:56:43;;;;;;;0.87;0.80;;;;;;;1.23;100.00;93556.06;4949793;29;20272;-73
2021/12/11 02:59:15;;;;;;;2.80;1.10;;;;;;;1.23;100.00;93543.38;4959948;28;20217;-71
2021/12/11 03:01:49;;;;;;;1.07;0.90;;;;;;;1.21;100.00;93540.38;4959803;28;20226;-71
2021/12/11 03:04:29;;;;;;;0.90;0.63;;;;;;;1.25;100.00;93545.63;4952449;29;20301;-71
2021/12/11 03:06:56;;;;;;;2.20;1.00;;;;;;;1.21;100.00;93567.25;4946665;28;20201;-71
2021/12/11 03:09:26;;;;;;;3.83;1.30;;;;;;;1.27;100.00;93572.84;4961297;28;20275;-71
2021/12/11 03:11:55;;;;;;;2.20;0.90;;;;;;;1.29;100.00;93575.84;4963308;28;20281;-71
2021/12/11 03:14:24;;;;;;;1.10;1.00;;;;;;;1.16;100.00;93562.41;4952803;28;20197;-72
2021/12/11 03:16:51;;;;;;;2.07;1.13;;;;;;;1.19;100.00;93566.16;4954397;28;20221;-71
2021/12/11 03:19:20;;;;;;;2.17;1.03;;;;;;;1.15;100.00;93566.28;4941712;28;20213;-71
2021/12/11 03:21:48;;;;;;;2.90;1.10;;;;;;;1.21;100.00;93572.63;4964081;28;20204;-71
2021/12/11 03:24:15;;;;;;;1.93;0.97;;;;;;;1.14;100.00;93578.22;4956943;28;20292;-71
2021/12/11 03:26:42;;;;;;;2.03;1.00;;;;;;;1.17;100.00;93580.03;4970968;28;20205;-71
2021/12/11 03:29:10;;;;;;;2.10;1.00;;;;;;;1.15;100.00;93589.72;4958094;28;20293;-71
2021/12/11 03:31:38;;;;;;;1.33;1.03;;;;;;;1.16;100.00;93583.16;4955171;28;20197;-71
2021/12/11 03:34:09;;;;;;;3.03;1.20;;;;;;;1.20;100.00;93594.56;4956518;28;20198;-71
2021/12/11 03:36:36;;;;;;;2.03;1.30;;;;;;;1.21;100.00;93601.44;4968992;28;20197;-71
2021/12/11 03:39:08;;;;;;;1.63;1.03;;;;;;;1.24;100.00;93604.03;4965235;28;20229;-71
2021/12/11 03:41:34;;;;;;;2.63;1.00;;;;;;;1.16;100.00;93608.13;4961300;28;20217;-72
2021/12/11 03:44:00;;;;;;;1.63;1.00;;;;;;;1.22;100.00;93609.06;4961468;28;20225;-72
2021/12/11 03:46:26;;;;;;;2.13;1.00;;;;;;;1.26;100.00;93624.38;4963462;28;20196;-72
2021/12/11 03:49:01;;;;;;;3.27;1.47;;;;;;;1.20;100.00;93622.19;4937264;29;20213;-72
2021/12/11 03:51:31;;;;;;;3.23;1.50;;;;;;;1.21;100.00;93623.72;4937055;28;20218;-72
2021/12/11 03:53:59;;;;;;;2.87;1.20;;;;;;;1.16;100.00;93618.09;4956667;28;20249;-72
2021/12/11 03:56:25;;;;;;;2.23;1.13;;;;;;;1.23;100.00;93623.28;4955763;29;20194;-72
2021/12/11 03:58:52;;;;;;;4.17;1.43;;;;;;;1.25;100.00;93629.00;4944147;29;20219;-71
2021/12/11 04:01:27;;;;;;;2.27;1.30;;;;;;;1.15;100.00;93633.47;4950342;28;20206;-71
2021/12/11 04:04:17;;;;;;;1.97;1.10;;;;;;;1.06;100.00;93622.63;4956619;28;20233;-72
2021/12/11 04:06:43;;;;;;;2.90;1.40;;;;;;;1.12;100.00;93626.28;4956008;28;20194;-71
2021/12/11 04:09:11;;;;;;;1.83;1.20;;;;;;;1.10;100.00;93633.28;4952439;28;20218;-71
2021/12/11 04:11:39;;;;;;;2.93;1.40;;;;;;;0.96;100.00;93629.06;4955453;28;20200;-72
2021/12/11 04:14:12;;;;;;;3.43;1.30;;;;;;;0.99;100.00;93632.81;4955332;28;20233;-71
2021/12/11 04:16:41;;;;;;;1.60;1.07;;;;;;;1.11;100.00;93640.16;4953749;29;20285;-71
2021/12/11 04:19:09;;;;;;;2.67;1.03;;;;;;;1.03;100.00;93646.91;4948720;28;20213;-71
2021/12/11 04:21:36;;;;;;;1.27;1.10;;;;;;;1.07;100.00;93650.22;4956037;28;20208;-72
2021/12/11 04:24:03;;;;;;;1.90;1.13;;;;;;;1.05;100.00;93652.63;4949162;29;20240;-72
2021/12/11 04:26:30;;;;;;;2.27;1.30;;;;;;;1.06;100.00;93646.06;4953706;28;20202;-72
2021/12/11 04:28:55;;;;;;;3.97;1.20;;;;;;;1.13;100.00;93656.59;4936937;29;20264;-72
2021/12/11 04:31:24;;;;;;;2.10;0.97;;;;;;;1.07;100.00;93667.13;4954620;29;20618;-72
2021/12/11 04:33:54;;;;;;;2.83;1.10;;;;;;;1.13;100.00;93659.28;4955147;28;20320;-72
2021/12/11 04:36:24;;;;;;;1.47;1.10;;;;;;;1.01;100.00;93647.34;4952440;28;20205;-71
2021/12/11 04:38:50;;;;;;;1.30;1.20;;;;;;;1.11;100.00;93667.03;4959581;28;20320;-72
2021/12/11 04:41:22;;;;;;;1.63;1.10;;;;;;;1.09;100.00;93674.75;4955019;28;20201;-72
2021/12/11 04:43:50;;;;;;;1.63;1.00;;;;;;;1.18;100.00;93672.97;4955682;28;20213;-72
2021/12/11 04:46:16;;;;;;;1.27;0.77;;;;;;;1.14;100.00;93668.84;4949842;29;20254;-72
2021/12/11 04:49:02;;;;;;;2.73;1.10;;;;;;;1.14;100.00;93674.22;4943807;29;20510;-71
2021/12/11 04:51:44;;;;;;;0.90;0.90;;;;;;;1.07;100.00;93667.13;4946008;29;20228;-72
2021/12/11 04:54:37;;;;;;;1.50;0.80;;;;;;;1.02;100.00;93667.66;4956547;28;20186;-72
2021/12/11 05:02:57;;;;;;;3.30;1.27;;;;;;;1.10;100.00;93693.16;4976726;28;20223;-72
2021/12/11 05:13:16;;;;;;;1.50;1.20;;;;;;;1.08;100.00;93714.34;4965607;29;20200;-72
2021/12/11 05:15:46;;;;;;;1.00;0.90;;;;;;;1.09;100.00;93712.41;4954108;29;20190;-72
2021/12/11 05:18:16;;;;;;;2.60;0.97;;;;;;;1.15;100.00;93708.03;4945147;28;20213;-72
2021/12/11 05:20:45;;;;;;;1.70;0.90;;;;;;;1.12;100.00;93723.06;4969063;28;20252;-72
2021/12/11 05:23:12;;;;;;;2.63;1.10;;;;;;;1.04;100.00;93719.06;4952227;29;20228;-72
2021/12/11 05:25:38;;;;;;;1.13;1.03;;;;;;;1.05;100.00;93725.94;4960876;28;20292;-72
2021/12/11 05:28:05;;;;;;;1.53;0.80;;;;;;;1.07;100.00;93722.81;4951493;28;20228;-72
2021/12/11 05:30:35;;;;;;;4.73;1.13;;;;;;;1.13;100.00;93734.56;4953065;29;20201;-72
2021/12/11 05:33:02;;;;;;;0.87;0.87;;;;;;;1.00;100.00;93729.13;4953605;28;20279;-72
2021/12/11 05:35:30;;;;;;;1.47;0.80;;;;;;;1.03;100.00;93738.31;4951489;29;20209;-72
2021/12/11 05:37:57;;;;;;;2.77;0.90;;;;;;;1.04;100.00;93737.88;4951675;28;20255;-73
2021/12/11 05:40:26;;;;;;;1.33;0.90;;;;;;;1.06;100.00;93746.28;4954174;28;20205;-72
2021/12/11 05:42:53;;;;;;;0.87;0.87;;;;;;;1.06;100.00;93745.50;4949004;29;20237;-72
2021/12/11 05:45:19;;;;;;;2.73;1.40;;;;;;;1.07;100.00;93750.47;4932991;29;20186;-72
2021/12/11 05:47:45;;;;;;;2.67;1.00;;;;;;;0.95;100.00;93742.38;4950570;28;20226;-72
2021/12/11 05:50:16;;;;;;;1.40;0.93;;;;;;;0.92;100.00;93746.63;4946448;29;20202;-72
2021/12/11 05:52:42;;;;;;;2.50;1.20;;;;;;;0.99;100.00;93757.22;4954664;28;20190;-72
2021/12/11 05:55:10;;;;;;;0.90;0.90;;;;;;;1.02;100.00;93758.28;4963517;28;20612;-72
2021/12/11 05:57:37;;;;;;;3.00;1.13;;;;;;;0.92;100.00;93760.06;4950787;28;20214;-72
2021/12/11 06:00:09;;;;;;;1.53;1.07;;;;;;;0.98;100.00;93765.69;4953903;28;20205;-72
2021/12/11 06:02:36;;;;;;;2.80;1.00;;;;;;;0.95;100.00;93769.25;4950651;28;20344;-72
2021/12/11 06:05:03;;;;;;;1.90;1.20;;;;;;;0.93;100.00;93766.94;4951099;29;20201;-72
2021/12/11 06:07:30;;;;;;;4.30;1.13;;;;;;;0.90;100.00;93783.19;4941706;28;20222;-72
2021/12/11 06:10:01;;;;;;;0.90;0.80;;;;;;;0.95;100.00;93778.03;4949111;28;20207;-72
2021/12/11 06:12:27;;;;;;;2.47;1.27;;;;;;;0.98;100.00;93779.13;4952866;28;20306;-73
2021/12/11 06:14:53;;;;;;;1.43;0.97;;;;;;;1.03;100.00;93786.69;4949382;28;20200;-72
2021/12/11 06:17:24;;;;;;;2.07;1.20;;;;;;;0.99;100.00;93792.16;4952127;28;20194;-72
2021/12/11 06:19:52;;;;;;;1.40;0.80;;;;;;;1.08;100.00;93799.59;4942479;28;20205;-73
2021/12/11 06:22:22;;;;;;;1.20;1.00;;;;;;;0.98;100.00;93787.97;4958502;28;20197;-73
2021/12/11 06:24:48;;;;;;;1.10;1.00;;;;;;;0.98;100.00;93806.00;4955171;28;20197;-72
2021/12/11 06:27:14;;;;;;;4.10;1.00;;;;;;;0.99;100.00;93810.97;4960369;28;20215;-72
2021/12/11 06:29:40;;;;;;;1.37;1.00;;;;;;;1.04;100.00;93817.75;4953447;28;20277;-72
2021/12/11 06:32:06;;;;;;;0.80;0.80;;;;;;;1.00;100.00;93823.22;4952540;29;20284;-72
2021/12/11 06:34:34;;;;;;;1.23;0.90;;;;;;;1.12;100.00;93832.53;4953115;29;20202;-72
2021/12/11 06:37:02;;;;;;;1.97;0.90;;;;;;;1.06;100.00;93832.28;4950194;28;20230;-72
2021/12/11 06:39:27;;;;;;;1.70;0.80;;;;;;;1.13;100.00;93829.44;4950989;28;20346;-72
2021/12/11 06:41:57;;;;;;;1.00;0.90;;;;;;;1.16;100.00;93842.03;4952344;28;20284;-72
2021/12/11 06:44:27;;;;;;;1.67;1.03;;;;;;;1.07;100.00;93847.22;4953176;28;20210;-72
2021/12/11 06:46:58;;;;;;;1.17;1.07;;;;;;;1.07;100.00;93854.53;4948414;28;20234;-72
2021/12/11 06:49:26;;;;;;;1.43;0.80;;;;;;;1.09;100.00;93866.38;4939565;28;20220;-72
2021/12/11 06:51:52;;;;;;;3.13;0.90;;;;;;;1.08;100.00;93869.50;4948255;28;20225;-72
2021/12/11 06:54:18;;;;;;;2.53;1.03;;;;;;;1.13;100.00;93874.38;4963185;28;20249;-72
2021/12/11 06:56:44;;;;;;;1.37;1.00;;;;;;;1.20;100.00;93871.50;4953906;28;20867;-72
2021/12/11 06:59:10;;;;;;;2.13;1.17;;;;;;;1.15;100.00;93890.84;4950109;28;20239;-72
2021/12/11 07:01:36;;;;;;;1.80;1.10;;;;;;;1.10;100.00;93885.97;4951273;28;20237;-72
2021/12/11 07:04:07;;;;;;;3.43;0.80;;;;;;;1.12;100.00;93894.38;4955800;28;20264;-72
2021/12/11 07:06:34;;;;;;;4.13;1.10;;;;;;;1.19;100.00;93899.56;4950944;28;20193;-72
2021/12/11 07:09:00;;;;;;;1.93;1.00;;;;;;;1.13;100.00;93901.25;4953798;28;20318;-72
2021/12/11 07:11:26;;;;;;;1.47;0.93;;;;;;;1.11;100.00;93904.38;4948577;28;20212;-72
2021/12/11 07:13:52;;;;;;;1.10;1.00;;;;;;;1.16;100.00;93911.16;4948195;28;20208;-72
2021/12/11 07:16:19;;;;;;;2.43;1.10;;;;;;;1.17;100.00;93918.81;4955783;28;20190;-72
2021/12/11 07:18:45;;;;;;;0.97;0.70;;;;;;;1.16;100.00;93924.59;4952824;29;20221;-72
2021/12/11 07:21:11;;;;;;;1.03;0.90;;;;;;;1.14;100.00;93926.94;4954480;29;20201;-72
2021/12/11 07:23:44;;;;;;;1.17;1.00;;;;;;;1.16;100.00;93940.75;4956951;28;20217;-72
2021/12/11 07:26:18;;;;;;;1.47;0.97;;;;;;;1.18;100.00;93952.59;4954874;29;20194;-72
2021/12/11 07:28:48;;;;;;;1.10;1.00;;;;;;;1.10;100.00;93953.91;4952169;28;20706;-72
2021/12/11 07:31:14;;;;;;;0.97;0.80;;;;;;;1.06;100.00;93963.25;4953857;28;20233;-72
2021/12/11 07:33:40;;;;;;;1.43;1.07;;;;;;;1.20;100.00;93962.94;4955004;29;20222;-72
2021/12/11 07:36:06;;;;;;;2.13;1.03;;;;;;;1.21;100.00;93978.66;4945837;29;20233;-72
2021/12/11 07:38:32;;;;;;;1.70;0.97;;;;;;;1.04;100.00;93957.53;4952969;28;20637;-72
2021/12/11 07:41:00;;;;;;;1.27;0.70;;;;;;;1.18;100.00;93976.03;4946995;29;20202;-72
2021/12/11 07:43:28;;;;;;;4.17;1.13;;;;;;;1.15;100.00;93974.19;4952452;28;20268;-72
2021/12/11 07:45:55;;;;;;;1.30;1.00;;;;;;;1.09;100.00;93983.91;4960303;28;20226;-72
2021/12/11 07:48:21;;;;;;;1.90;1.10;;;;;;;1.14;100.00;93988.78;4949954;28;20214;-73
2021/12/11 07:50:48;;;;;;;1.37;0.90;;;;;;;1.23;100.00;93997.03;4960241;28;20276;-73
2021/12/11 07:53:15;;;;;;;1.30;0.90;;;;;;;1.14;100.00;93996.84;4951657;28;20225;-72
2021/12/11 07:55:42;;;;;;;1.47;1.20;;;;;;;1.13;100.00;94004.19;4957130;28;20194;-73
2021/12/11 07:58:09;;;;;;;1.20;1.00;;;;;;;1.09;100.00;93995.44;4951646;29;20241;-72
2021/12/11 08:00:38;;;;;;;2.00;0.90;;;;;;;1.19;100.00;94015.94;4956148;28;20257;-73
2021/12/11 08:03:06;;;;;;;3.87;1.20;;;;;;;1.11;100.00;94016.53;4966227;28;20224;-73
2021/12/11 08:05:33;;;;;;;1.47;0.97;;;;;;;1.06;100.00;94019.72;4934282;28;20198;-73
2021/12/11 08:08:01;;;;;;;3.73;1.00;;;;;;;1.17;100.00;94029.03;4956286;28;20280;-73
2021/12/11 08:10:30;;;;;;;1.27;1.00;;;;;;;1.22;100.00;94020.47;4955505;29;20197;-73
2021/12/11 08:12:57;;;;;;;1.23;0.90;;;;;;;1.13;100.00;94033.75;4950663;29;20190;-73
2021/12/11 08:15:23;;;;;;;1.23;0.77;;;;;;;1.24;100.00;94033.50;4953941;29;20256;-73
2021/12/11 08:17:54;;;;;;;1.57;0.80;;;;;;;1.23;100.00;94037.38;4952061;28;20331;-73
2021/12/11 08:20:24;;;;;;;3.97;1.20;;;;;;;1.35;100.00;94047.47;4956423;28;20205;-72
2021/12/11 08:22:52;;;;;;;1.50;1.10;;;;;;;1.37;100.00;94052.44;4968480;28;20210;-74
2021/12/11 08:25:19;;;;;;;1.00;0.90;;;;;;;1.30;100.00;94052.59;4966883;28;20202;-72
2021/12/11 08:27:45;;;;;;;2.73;1.03;;;;;;;1.37;100.00;94055.91;4972181;28;20209;-72
2021/12/11 08:30:12;;;;;;;0.70;0.70;;;;;;;1.36;100.00;94059.75;4972256;28;20206;-72
2021/12/11 08:32:38;;;;;;;0.80;0.80;;;;;;;1.34;100.00;94067.47;4968554;28;20224;-73
2021/12/11 08:35:09;;;;;;;0.90;0.87;;;;;;;1.33;100.00;94073.25;4967366;29;20201;-73
2021/12/11 08:37:36;;;;;;;0.93;0.93;;;;;;;1.29;100.00;94080.66;4971142;28;20221;-72
2021/12/11 08:40:05;;;;;;;1.57;1.00;;;;;;;1.32;100.00;94094.03;4972133;28;20190;-72
2021/12/11 08:42:31;;;;;;;1.33;1.00;;;;;;;1.21;100.00;94113.09;4954854;28;20201;-72
2021/12/11 08:45:06;;;;;;;0.90;0.80;;;;;;;1.24;100.00;94109.56;4938095;29;20194;-72
2021/12/11 08:47:34;;;;;;;1.40;1.30;;;;;;;1.13;100.00;94119.03;4952976;28;20217;-72
2021/12/11 08:50:00;;;;;;;1.13;1.00;;;;;;;0.97;100.00;94135.09;4954549;28;20276;-73
2021/12/11 08:52:36;;;;;;;0.97;0.60;;;;;;;0.74;100.00;94132.47;4955551;28;20264;-72
2021/12/11 08:55:10;;;;;;;0.40;0.40;;;;;;;0.41;100.00;94138.88;4953972;28;20195;-72
2021/12/11 08:57:39;;;;;;;0.60;0.60;;;;;;;0.62;100.00;94141.91;4931096;29;20222;-72
2021/12/11 09:00:18;;;;;;;0.70;0.60;;;;;;;0.59;100.00;94147.34;4950471;29;20198;-73
2021/12/11 09:02:48;;;;;;;1.77;0.67;;;;;;;0.56;100.00;94142.81;4953593;28;20288;-72
2021/12/11 09:05:26;;;;;;;0.83;0.60;;;;;;;0.86;100.00;94145.31;4960136;28;20256;-72
2021/12/11 09:08:01;;;;;;;0.50;0.50;;;;;;;0.79;100.00;94159.63;4955560;28;21932;-72
2021/12/11 09:10:49;;;;;;;0.73;0.63;;;;;;;0.94;100.00;94165.50;4952025;28;20236;-72
2021/12/11 09:13:41;;;;;;;1.10;1.00;;;;;;;0.86;100.00;94174.88;4959913;28;20204;-72
2021/12/11 09:16:15;;;;;;;0.90;0.90;;;;;;;0.74;100.00;94183.53;4950141;29;20202;-73
2021/12/11 09:18:46;;;;;;;0.93;0.80;;;;;;;0.68;100.00;94187.88;4945766;28;20224;-72
2021/12/11 09:21:19;;;;;;;1.77;0.70;;;;;;;0.70;100.00;94194.34;4954241;28;20205;-72
2021/12/11 09:24:04;;;;;;;0.77;0.67;;;;;;;0.67;100.00;94197.84;4955537;28;20213;-72
2021/12/11 09:26:37;;;;;;;0.77;0.70;;;;;;;0.69;100.00;94210.88;4957955;28;20269;-72
2021/12/11 09:29:35;;;;;;;0.50;0.50;;;;;;;0.45;100.00;94212.06;4953879;28;20931;-72
2021/12/11 09:32:33;;;;;;;0.70;0.70;;;;;;;0.66;100.00;94217.81;4953899;28;20201;-72
2021/12/11 09:35:12;;;;;;;0.80;0.73;;;;;;;0.43;100.00;94225.13;4952724;28;20206;-72
2021/12/11 09:37:39;;;;;;;3.60;0.70;;;;;;;0.47;100.00;94223.16;4946092;28;20236;-72
2021/12/11 09:40:27;;;;;;;5.80;1.00;;;;;;;0.57;100.00;94231.03;4954865;28;20225;-72
2021/12/11 09:42:52;;;;;;;1.53;1.10;;;;;;;0.55;100.00;94229.91;4934463;28;20206;-72
2021/12/11 09:45:24;;;;;;;1.43;1.00;;;;;;;0.51;100.00;94231.94;4941279;29;20203;-72
2021/12/11 09:48:07;;;;;;;0.93;0.93;;;;;;;0.50;100.00;94230.38;4942668;28;20247;-72
2021/12/11 09:50:48;;;;;;;0.80;0.80;;;;;;;0.57;100.00;94231.03;4951234;28;20221;-72
2021/12/11 09:53:16;;;;;;;1.53;1.27;;;;;;;0.82;100.00;94246.72;4950955;28;20273;-72
2021/12/11 09:55:43;;;;;;;1.67;1.00;;;;;;;1.13;100.00;94237.34;4952510;28;20233;-72
2021/12/11 09:58:13;;;;;;;1.00;0.90;;;;;;;1.31;100.00;94239.69;4947844;29;20269;-72
2021/12/11 10:01:09;;;;;;;1.03;0.80;;;;;;;1.36;100.00;94236.53;4948367;28;20198;-72
2021/12/11 10:03:45;;;;;;;1.10;1.00;;;;;;;1.69;100.00;94236.22;4947317;29;20218;-72
2021/12/11 10:06:39;;;;;;;1.10;0.93;;;;;;;1.27;100.00;94242.47;4950859;29;20201;-72
2021/12/11 10:09:29;;;;;;;1.90;1.10;;;;;;;1.35;100.00;94246.53;4951701;28;20250;-72
2021/12/11 10:12:03;;;;;;;3.00;1.23;;;;;;;1.34;100.00;94257.69;4951983;29;20190;-72
2021/12/11 10:14:36;;;;;;;1.30;1.20;;;;;;;1.19;100.00;94254.50;4948478;28;20289;-72
2021/12/11 10:17:10;;;;;;;1.10;1.00;;;;;;;1.22;100.00;94261.75;4952186;28;20768;-72
2021/12/11 10:19:48;;;;;;;3.03;1.43;;;;;;;1.34;100.00;94271.88;4932137;28;20193;-72
2021/12/11 10:22:24;;;;;;;1.37;1.27;;;;;;;1.17;100.00;94249.53;4948461;28;20213;-72
2021/12/11 10:24:55;;;;;;;1.43;1.30;;;;;;;1.26;100.00;94272.44;4951637;28;20209;-72
2021/12/11 10:27:27;;;;;;;2.37;1.50;;;;;;;1.44;100.00;94275.56;4951926;28;20194;-72
2021/12/11 10:29:56;;;;;;;1.57;1.47;;;;;;;1.43;100.00;94265.94;4956400;28;20193;-72
2021/12/11 10:32:41;;;;;;;2.60;1.70;;;;;;;1.55;100.00;94276.09;4969209;28;20212;-73
2021/12/11 10:35:17;;;;;;;1.97;1.60;;;;;;;1.36;100.00;94287.63;4938611;29;20205;-72
2021/12/11 10:38:07;;;;;;;1.87;1.60;;;;;;;1.43;100.00;94296.31;4944714;28;20244;-72
2021/12/11 10:40:43;;;;;;;2.30;2.10;;;;;;;1.43;100.00;94292.84;4946898;28;20288;-71
2021/12/11 10:43:20;;;;;;;1.87;1.70;;;;;;;1.55;100.00;94294.94;4941612;28;20221;-72
2021/12/11 10:45:48;;;;;;;2.20;1.90;;;;;;;1.59;100.00;94303.69;4952848;29;20280;-72
2021/12/11 10:48:19;;;;;;;2.13;1.73;;;;;;;1.66;100.00;94317.78;4950066;28;20223;-72
2021/12/11 10:51:26;;;;;;;2.10;1.87;;;;;;;1.72;100.00;94321.50;4954919;28;20273;-72
2021/12/11 10:53:52;;;;;;;2.70;2.10;;;;;;;1.57;100.00;94312.19;4947556;28;20207;-72
2021/12/11 10:56:20;;;;;;;1.70;1.60;;;;;;;1.60;100.00;94316.75;4960778;28;20205;-71
2021/12/11 10:58:54;;;;;;;1.90;1.70;;;;;;;1.55;100.00;94322.59;4951908;28;20221;-72
2021/12/11 11:01:29;;;;;;;1.60;1.47;;;;;;;1.41;100.00;94332.88;4953067;28;20213;-72
2021/12/11 11:03:59;;;;;;;1.63;1.53;;;;;;;1.38;100.00;94337.13;4951375;28;20208;-72
2021/12/11 11:06:25;;;;;;;1.63;1.53;;;;;;;1.40;100.00;94345.56;4949051;29;20277;-71
2021/12/11 11:08:51;;;;;;;1.60;1.50;;;;;;;1.22;100.00;94345.88;4946996;28;20217;-72
2021/12/11 11:11:21;;;;;;;1.80;1.70;;;;;;;1.46;100.00;94348.53;4949471;29;20202;-72
2021/12/11 11:13:47;;;;;;;1.87;1.70;;;;;;;1.36;100.00;94350.25;4947269;29;20186;-71
2021/12/11 11:16:14;;;;;;;1.97;1.60;;;;;;;1.46;100.00;94368.13;4947216;29;20233;-71
2021/12/11 11:18:40;;;;;;;1.90;1.80;;;;;;;1.77;100.00;94364.09;4945927;29;20221;-71
2021/12/11 11:21:13;;;;;;;4.03;1.67;;;;;;;2.13;100.00;94372.22;4956681;28;20279;-72
2021/12/11 11:23:42;;;;;;;1.97;1.50;;;;;;;2.24;100.00;94370.81;4960988;28;20265;-72
2021/12/11 11:26:11;;;;;;;2.30;2.10;;;;;;;3.91;100.00;94373.75;4950918;29;20202;-72
2021/12/11 11:28:39;;;;;;;2.57;2.20;;;;;;;3.00;100.00;94374.16;4943008;29;20277;-72
2021/12/11 11:31:16;;;;;;;1.90;1.80;;;;;;;3.20;100.00;94364.03;4940462;29;20217;-73
2021/12/11 11:33:46;;;;;;;1.70;1.60;;;;;;;3.08;100.00;94370.09;4952405;29;20190;-72
2021/12/11 11:36:15;;;;;;;1.77;1.67;;;;;;;3.82;100.00;94374.38;4960463;28;20284;-72
2021/12/11 11:38:51;;;;;;;2.10;1.70;;;;;;;3.23;100.00;94384.78;4934605;28;20643;-71
2021/12/11 11:41:26;;;;;;;1.83;1.73;;;;;;;2.70;100.00;94391.41;4945959;28;20210;-71
2021/12/11 11:43:53;;;;;;;1.53;1.43;;;;;;;2.01;100.00;94395.16;4961237;28;20259;-71
2021/12/11 11:46:19;;;;;;;1.73;1.63;;;;;;;2.18;100.00;94402.13;4959535;28;20222;-72
2021/12/11 11:48:48;;;;;;;2.10;1.90;;;;;;;2.14;100.00;94400.66;4959159;28;20209;-71
2021/12/11 11:51:21;;;;;;;2.00;1.90;;;;;;;2.08;100.00;94400.41;4964770;28;20194;-72
2021/12/11 11:53:48;;;;;;;2.17;1.97;;;;;;;2.15;100.00;94418.38;4965656;28;20194;-72
2021/12/11 11:56:16;;;;;;;4.27;2.03;;;;;;;2.13;100.00;94412.63;4967697;29;20225;-72
2021/12/11 11:58:42;;;;;;;2.20;2.00;;;;;;;2.12;100.00;94419.94;4965447;28;20305;-71
2021/12/11 12:01:14;;;;;;;2.50;2.30;;;;;;;2.10;100.00;94416.16;4971170;28;20198;-72
2021/12/11 12:03:40;;;;;;;2.50;2.30;;;;;;;2.04;100.00;94418.56;4971478;29;20210;-72
2021/12/11 12:06:11;;;;;;;2.83;2.27;;;;;;;1.75;100.00;94411.44;4952507;29;20208;-72
2021/12/11 12:08:42;;;;;;;2.77;2.10;;;;;;;1.85;100.00;94422.00;4955047;29;20224;-71
2021/12/11 12:11:09;;;;;;;5.17;2.07;;;;;;;1.95;100.00;94433.75;4951606;29;20273;-72